sensor_id;sensor_type;location;lat;lon;timestamp;P1;durP1;ratioP1;P2;durP2;ratioP2
45618;SDS011;31343;47.520;19.144;2023-07-09T00:00:55;3.03;;;1.52;;
45618;SDS011;31343;47.520;19.144;2023-07-09T00:03:21;4.88;;;2.42;;
45618;SDS011;31343;47.520;19.144;2023-07-09T00:05:48;5.50;;;2.55;;
45618;SDS011;31343;47.520;19.144;2023-07-09T00:08:28;3.03;;;1.55;;
45618;SDS011;31343;47.520;19.144;2023-07-09T00:10:55;3.72;;;2.53;;
45618;SDS011;31343;47.520;19.144;2023-07-09T00:13:25;2.83;;;1.90;;
45618;SDS011;31343;47.520;19.144;2023-07-09T00:15:53;2.65;;;1.77;;
45618;SDS011;31343;47.520;19.144;2023-07-09T00:18:26;2.85;;;1.83;;
45618;SDS011;31343;47.520;19.144;2023-07-09T00:20:52;3.30;;;1.58;;
45618;SDS011;31343;47.520;19.144;2023-07-09T00:23:18;3.17;;;2.10;;
45618;SDS011;31343;47.520;19.144;2023-07-09T00:25:45;1.85;;;1.63;;
45618;SDS011;31343;47.520;19.144;2023-07-09T00:28:16;3.15;;;1.90;;
45618;SDS011;31343;47.520;19.144;2023-07-09T00:30:45;2.70;;;1.63;;
45618;SDS011;31343;47.520;19.144;2023-07-09T00:33:13;3.13;;;1.80;;
45618;SDS011;31343;47.520;19.144;2023-07-09T00:35:43;2.05;;;1.48;;
45618;SDS011;31343;47.520;19.144;2023-07-09T00:38:18;2.85;;;2.08;;
45618;SDS011;31343;47.520;19.144;2023-07-09T00:41:05;2.83;;;1.75;;
45618;SDS011;31343;47.520;19.144;2023-07-09T00:43:42;3.25;;;2.20;;
45618;SDS011;31343;47.520;19.144;2023-07-09T00:48:53;3.83;;;2.33;;
45618;SDS011;31343;47.520;19.144;2023-07-09T00:51:30;3.55;;;2.42;;
45618;SDS011;31343;47.520;19.144;2023-07-09T00:53:59;3.33;;;1.83;;
45618;SDS011;31343;47.520;19.144;2023-07-09T00:56:39;3.20;;;2.08;;
45618;SDS011;31343;47.520;19.144;2023-07-09T00:59:10;1.77;;;1.20;;
45618;SDS011;31343;47.520;19.144;2023-07-09T01:01:39;4.32;;;1.63;;
45618;SDS011;31343;47.520;19.144;2023-07-09T01:04:05;2.33;;;1.63;;
45618;SDS011;31343;47.520;19.144;2023-07-09T01:09:04;2.17;;;1.45;;
45618;SDS011;31343;47.520;19.144;2023-07-09T01:11:31;2.17;;;1.38;;
45618;SDS011;31343;47.520;19.144;2023-07-09T01:13:58;2.90;;;2.33;;
45618;SDS011;31343;47.520;19.144;2023-07-09T01:16:30;2.83;;;1.45;;
45618;SDS011;31343;47.520;19.144;2023-07-09T01:18:59;2.30;;;1.73;;
45618;SDS011;31343;47.520;19.144;2023-07-09T01:21:25;2.20;;;1.55;;
45618;SDS011;31343;47.520;19.144;2023-07-09T01:23:52;2.60;;;1.52;;
45618;SDS011;31343;47.520;19.144;2023-07-09T01:26:22;2.15;;;1.23;;
45618;SDS011;31343;47.520;19.144;2023-07-09T01:28:55;3.55;;;2.10;;
45618;SDS011;31343;47.520;19.144;2023-07-09T01:31:22;2.38;;;1.75;;
45618;SDS011;31343;47.520;19.144;2023-07-09T01:33:48;2.88;;;1.60;;
45618;SDS011;31343;47.520;19.144;2023-07-09T01:36:19;2.60;;;1.58;;
45618;SDS011;31343;47.520;19.144;2023-07-09T01:38:49;2.38;;;1.98;;
45618;SDS011;31343;47.520;19.144;2023-07-09T01:41:16;2.03;;;1.52;;
45618;SDS011;31343;47.520;19.144;2023-07-09T01:43:43;2.85;;;2.05;;
45618;SDS011;31343;47.520;19.144;2023-07-09T01:46:09;3.58;;;1.75;;
45618;SDS011;31343;47.520;19.144;2023-07-09T01:48:38;3.03;;;2.05;;
45618;SDS011;31343;47.520;19.144;2023-07-09T01:51:11;2.13;;;1.33;;
45618;SDS011;31343;47.520;19.144;2023-07-09T01:53:38;3.28;;;1.63;;
45618;SDS011;31343;47.520;19.144;2023-07-09T01:56:06;3.35;;;2.22;;
45618;SDS011;31343;47.520;19.144;2023-07-09T01:58:32;3.72;;;2.28;;
45618;SDS011;31343;47.520;19.144;2023-07-09T02:00:59;2.00;;;1.48;;
45618;SDS011;31343;47.520;19.144;2023-07-09T02:03:25;3.42;;;1.98;;
45618;SDS011;31343;47.520;19.144;2023-07-09T02:05:54;5.10;;;2.10;;
45618;SDS011;31343;47.520;19.144;2023-07-09T02:08:20;4.80;;;2.88;;
45618;SDS011;31343;47.520;19.144;2023-07-09T02:10:49;3.10;;;2.03;;
45618;SDS011;31343;47.520;19.144;2023-07-09T02:13:16;2.92;;;2.15;;
45618;SDS011;31343;47.520;19.144;2023-07-09T02:15:42;3.85;;;2.05;;
45618;SDS011;31343;47.520;19.144;2023-07-09T02:18:09;3.08;;;2.15;;
45618;SDS011;31343;47.520;19.144;2023-07-09T02:20:35;2.20;;;1.58;;
45618;SDS011;31343;47.520;19.144;2023-07-09T02:23:01;2.95;;;2.17;;
45618;SDS011;31343;47.520;19.144;2023-07-09T02:25:27;3.20;;;1.98;;
45618;SDS011;31343;47.520;19.144;2023-07-09T02:27:53;3.05;;;1.98;;
45618;SDS011;31343;47.520;19.144;2023-07-09T02:30:19;3.28;;;2.08;;
45618;SDS011;31343;47.520;19.144;2023-07-09T02:32:44;2.60;;;1.75;;
45618;SDS011;31343;47.520;19.144;2023-07-09T02:35:10;2.60;;;1.67;;
45618;SDS011;31343;47.520;19.144;2023-07-09T02:37:36;2.40;;;1.65;;
45618;SDS011;31343;47.520;19.144;2023-07-09T02:40:03;2.72;;;1.65;;
45618;SDS011;31343;47.520;19.144;2023-07-09T02:42:29;2.35;;;1.70;;
45618;SDS011;31343;47.520;19.144;2023-07-09T02:44:55;4.82;;;2.08;;
45618;SDS011;31343;47.520;19.144;2023-07-09T02:47:21;5.03;;;2.28;;
45618;SDS011;31343;47.520;19.144;2023-07-09T02:49:47;3.42;;;2.70;;
45618;SDS011;31343;47.520;19.144;2023-07-09T02:52:13;2.30;;;1.95;;
45618;SDS011;31343;47.520;19.144;2023-07-09T02:54:39;2.92;;;2.40;;
45618;SDS011;31343;47.520;19.144;2023-07-09T02:57:05;3.53;;;1.85;;
45618;SDS011;31343;47.520;19.144;2023-07-09T02:59:31;3.20;;;1.95;;
45618;SDS011;31343;47.520;19.144;2023-07-09T03:01:58;3.72;;;1.88;;
45618;SDS011;31343;47.520;19.144;2023-07-09T03:04:24;1.90;;;1.33;;
45618;SDS011;31343;47.520;19.144;2023-07-09T03:06:50;2.80;;;1.45;;
45618;SDS011;31343;47.520;19.144;2023-07-09T03:09:17;2.47;;;1.67;;
45618;SDS011;31343;47.520;19.144;2023-07-09T03:11:43;4.20;;;2.22;;
45618;SDS011;31343;47.520;19.144;2023-07-09T03:14:10;2.35;;;2.00;;
45618;SDS011;31343;47.520;19.144;2023-07-09T03:16:36;3.03;;;1.77;;
45618;SDS011;31343;47.520;19.144;2023-07-09T03:19:02;2.20;;;1.60;;
45618;SDS011;31343;47.520;19.144;2023-07-09T03:21:29;2.85;;;1.65;;
45618;SDS011;31343;47.520;19.144;2023-07-09T03:23:55;2.00;;;1.65;;
45618;SDS011;31343;47.520;19.144;2023-07-09T03:26:22;4.78;;;2.45;;
45618;SDS011;31343;47.520;19.144;2023-07-09T03:28:50;3.42;;;2.42;;
45618;SDS011;31343;47.520;19.144;2023-07-09T03:31:17;3.17;;;1.90;;
45618;SDS011;31343;47.520;19.144;2023-07-09T03:33:42;4.55;;;2.90;;
45618;SDS011;31343;47.520;19.144;2023-07-09T03:36:08;2.40;;;1.50;;
45618;SDS011;31343;47.520;19.144;2023-07-09T03:38:34;3.47;;;2.25;;
45618;SDS011;31343;47.520;19.144;2023-07-09T03:41:00;3.15;;;2.50;;
45618;SDS011;31343;47.520;19.144;2023-07-09T03:43:25;3.78;;;2.38;;
45618;SDS011;31343;47.520;19.144;2023-07-09T03:45:51;5.93;;;2.55;;
45618;SDS011;31343;47.520;19.144;2023-07-09T03:48:18;3.08;;;1.77;;
45618;SDS011;31343;47.520;19.144;2023-07-09T03:50:45;3.05;;;1.67;;
45618;SDS011;31343;47.520;19.144;2023-07-09T03:53:13;3.13;;;2.80;;
45618;SDS011;31343;47.520;19.144;2023-07-09T03:55:39;3.33;;;1.98;;
45618;SDS011;31343;47.520;19.144;2023-07-09T03:58:05;2.90;;;2.00;;
45618;SDS011;31343;47.520;19.144;2023-07-09T04:00:31;2.83;;;2.05;;
45618;SDS011;31343;47.520;19.144;2023-07-09T04:02:58;2.58;;;2.17;;
45618;SDS011;31343;47.520;19.144;2023-07-09T04:05:24;3.75;;;2.55;;
45618;SDS011;31343;47.520;19.144;2023-07-09T04:07:50;4.20;;;2.40;;
45618;SDS011;31343;47.520;19.144;2023-07-09T04:10:16;3.92;;;2.38;;
45618;SDS011;31343;47.520;19.144;2023-07-09T04:12:42;2.92;;;1.90;;
45618;SDS011;31343;47.520;19.144;2023-07-09T04:15:08;2.92;;;1.60;;
45618;SDS011;31343;47.520;19.144;2023-07-09T04:17:34;3.65;;;2.53;;
45618;SDS011;31343;47.520;19.144;2023-07-09T04:20:01;3.08;;;1.98;;
45618;SDS011;31343;47.520;19.144;2023-07-09T04:22:30;4.25;;;2.38;;
45618;SDS011;31343;47.520;19.144;2023-07-09T04:24:57;3.55;;;2.50;;
45618;SDS011;31343;47.520;19.144;2023-07-09T04:27:23;4.10;;;2.42;;
45618;SDS011;31343;47.520;19.144;2023-07-09T04:29:52;3.55;;;2.47;;
45618;SDS011;31343;47.520;19.144;2023-07-09T04:32:19;2.80;;;2.03;;
45618;SDS011;31343;47.520;19.144;2023-07-09T04:34:45;3.83;;;2.08;;
45618;SDS011;31343;47.520;19.144;2023-07-09T04:37:11;2.08;;;1.52;;
45618;SDS011;31343;47.520;19.144;2023-07-09T04:39:38;3.50;;;2.00;;
45618;SDS011;31343;47.520;19.144;2023-07-09T04:42:09;2.38;;;1.30;;
45618;SDS011;31343;47.520;19.144;2023-07-09T04:44:37;2.75;;;1.90;;
45618;SDS011;31343;47.520;19.144;2023-07-09T04:47:02;2.88;;;2.13;;
45618;SDS011;31343;47.520;19.144;2023-07-09T04:49:28;3.58;;;2.60;;
45618;SDS011;31343;47.520;19.144;2023-07-09T04:51:54;2.72;;;1.77;;
45618;SDS011;31343;47.520;19.144;2023-07-09T04:54:21;2.80;;;1.90;;
45618;SDS011;31343;47.520;19.144;2023-07-09T04:56:48;3.15;;;2.00;;
45618;SDS011;31343;47.520;19.144;2023-07-09T04:59:13;3.78;;;1.88;;
45618;SDS011;31343;47.520;19.144;2023-07-09T05:01:39;3.60;;;1.70;;
45618;SDS011;31343;47.520;19.144;2023-07-09T05:04:05;3.50;;;2.17;;
45618;SDS011;31343;47.520;19.144;2023-07-09T05:06:32;2.15;;;1.27;;
45618;SDS011;31343;47.520;19.144;2023-07-09T05:08:58;2.83;;;1.58;;
45618;SDS011;31343;47.520;19.144;2023-07-09T05:11:24;3.38;;;1.95;;
45618;SDS011;31343;47.520;19.144;2023-07-09T05:13:49;2.00;;;1.30;;
45618;SDS011;31343;47.520;19.144;2023-07-09T05:16:16;2.95;;;1.60;;
45618;SDS011;31343;47.520;19.144;2023-07-09T05:18:42;3.47;;;1.70;;
45618;SDS011;31343;47.520;19.144;2023-07-09T05:21:09;1.88;;;1.20;;
45618;SDS011;31343;47.520;19.144;2023-07-09T05:23:35;3.33;;;1.70;;
45618;SDS011;31343;47.520;19.144;2023-07-09T05:26:02;1.80;;;1.20;;
45618;SDS011;31343;47.520;19.144;2023-07-09T05:28:29;3.83;;;2.28;;
45618;SDS011;31343;47.520;19.144;2023-07-09T05:30:55;3.80;;;2.00;;
45618;SDS011;31343;47.520;19.144;2023-07-09T05:33:21;2.83;;;1.35;;
45618;SDS011;31343;47.520;19.144;2023-07-09T05:35:47;2.75;;;1.73;;
45618;SDS011;31343;47.520;19.144;2023-07-09T05:38:13;2.50;;;1.48;;
45618;SDS011;31343;47.520;19.144;2023-07-09T05:40:40;2.63;;;1.75;;
45618;SDS011;31343;47.520;19.144;2023-07-09T05:43:07;1.80;;;1.20;;
45618;SDS011;31343;47.520;19.144;2023-07-09T05:45:33;1.88;;;1.33;;
45618;SDS011;31343;47.520;19.144;2023-07-09T05:47:59;2.38;;;1.42;;
45618;SDS011;31343;47.520;19.144;2023-07-09T05:50:26;2.42;;;1.42;;
45618;SDS011;31343;47.520;19.144;2023-07-09T05:52:53;4.25;;;1.80;;
45618;SDS011;31343;47.520;19.144;2023-07-09T05:55:19;1.60;;;1.50;;
45618;SDS011;31343;47.520;19.144;2023-07-09T05:57:44;1.98;;;1.30;;
45618;SDS011;31343;47.520;19.144;2023-07-09T06:00:10;2.33;;;1.42;;
45618;SDS011;31343;47.520;19.144;2023-07-09T06:02:37;2.17;;;1.50;;
45618;SDS011;31343;47.520;19.144;2023-07-09T06:05:04;2.33;;;1.33;;
45618;SDS011;31343;47.520;19.144;2023-07-09T06:07:30;2.00;;;1.30;;
45618;SDS011;31343;47.520;19.144;2023-07-09T06:09:56;1.48;;;1.15;;
45618;SDS011;31343;47.520;19.144;2023-07-09T06:12:22;1.50;;;1.08;;
45618;SDS011;31343;47.520;19.144;2023-07-09T06:14:48;2.17;;;1.20;;
45618;SDS011;31343;47.520;19.144;2023-07-09T06:17:14;2.60;;;1.42;;
45618;SDS011;31343;47.520;19.144;2023-07-09T06:19:40;1.50;;;1.10;;
45618;SDS011;31343;47.520;19.144;2023-07-09T06:22:05;1.80;;;1.13;;
45618;SDS011;31343;47.520;19.144;2023-07-09T06:24:31;2.03;;;0.82;;
45618;SDS011;31343;47.520;19.144;2023-07-09T06:26:57;1.60;;;1.08;;
45618;SDS011;31343;47.520;19.144;2023-07-09T06:29:24;2.03;;;1.20;;
45618;SDS011;31343;47.520;19.144;2023-07-09T06:31:50;2.47;;;1.20;;
45618;SDS011;31343;47.520;19.144;2023-07-09T06:34:16;1.65;;;1.00;;
45618;SDS011;31343;47.520;19.144;2023-07-09T06:36:42;2.08;;;1.40;;
45618;SDS011;31343;47.520;19.144;2023-07-09T06:39:08;1.75;;;1.17;;
45618;SDS011;31343;47.520;19.144;2023-07-09T06:41:34;2.25;;;1.48;;
45618;SDS011;31343;47.520;19.144;2023-07-09T06:44:06;1.98;;;0.90;;
45618;SDS011;31343;47.520;19.144;2023-07-09T06:46:33;1.85;;;1.23;;
45618;SDS011;31343;47.520;19.144;2023-07-09T06:48:59;1.77;;;1.20;;
45618;SDS011;31343;47.520;19.144;2023-07-09T06:51:25;3.20;;;1.55;;
45618;SDS011;31343;47.520;19.144;2023-07-09T06:53:50;1.75;;;1.20;;
45618;SDS011;31343;47.520;19.144;2023-07-09T06:56:17;2.22;;;1.15;;
45618;SDS011;31343;47.520;19.144;2023-07-09T06:58:42;1.67;;;1.20;;
45618;SDS011;31343;47.520;19.144;2023-07-09T07:01:11;2.00;;;1.13;;
45618;SDS011;31343;47.520;19.144;2023-07-09T07:03:37;2.08;;;1.25;;
45618;SDS011;31343;47.520;19.144;2023-07-09T07:06:04;2.42;;;1.15;;
45618;SDS011;31343;47.520;19.144;2023-07-09T07:08:33;1.80;;;1.20;;
45618;SDS011;31343;47.520;19.144;2023-07-09T07:11:00;1.20;;;0.85;;
45618;SDS011;31343;47.520;19.144;2023-07-09T07:13:31;1.77;;;1.10;;
45618;SDS011;31343;47.520;19.144;2023-07-09T07:16:00;1.63;;;1.03;;
45618;SDS011;31343;47.520;19.144;2023-07-09T07:18:30;2.17;;;1.20;;
45618;SDS011;31343;47.520;19.144;2023-07-09T07:20:56;1.73;;;1.02;;
45618;SDS011;31343;47.520;19.144;2023-07-09T07:23:21;1.52;;;0.93;;
45618;SDS011;31343;47.520;19.144;2023-07-09T07:25:48;1.52;;;1.00;;
45618;SDS011;31343;47.520;19.144;2023-07-09T07:28:14;2.03;;;1.17;;
45618;SDS011;31343;47.520;19.144;2023-07-09T07:30:40;1.50;;;1.35;;
45618;SDS011;31343;47.520;19.144;2023-07-09T07:33:06;2.30;;;1.50;;
45618;SDS011;31343;47.520;19.144;2023-07-09T07:35:32;1.58;;;1.00;;
45618;SDS011;31343;47.520;19.144;2023-07-09T07:37:58;1.80;;;1.08;;
45618;SDS011;31343;47.520;19.144;2023-07-09T07:40:23;2.58;;;1.10;;
45618;SDS011;31343;47.520;19.144;2023-07-09T07:42:49;2.30;;;1.15;;
45618;SDS011;31343;47.520;19.144;2023-07-09T07:45:16;1.67;;;1.02;;
45618;SDS011;31343;47.520;19.144;2023-07-09T07:47:42;2.13;;;1.02;;
45618;SDS011;31343;47.520;19.144;2023-07-09T07:50:09;1.23;;;1.05;;
45618;SDS011;31343;47.520;19.144;2023-07-09T07:52:35;1.55;;;1.00;;
45618;SDS011;31343;47.520;19.144;2023-07-09T07:55:05;1.75;;;1.00;;
45618;SDS011;31343;47.520;19.144;2023-07-09T07:57:32;2.13;;;1.48;;
45618;SDS011;31343;47.520;19.144;2023-07-09T07:59:58;1.25;;;0.90;;
45618;SDS011;31343;47.520;19.144;2023-07-09T08:02:24;2.17;;;1.33;;
45618;SDS011;31343;47.520;19.144;2023-07-09T08:04:50;1.27;;;0.90;;
45618;SDS011;31343;47.520;19.144;2023-07-09T08:07:16;1.73;;;0.80;;
45618;SDS011;31343;47.520;19.144;2023-07-09T08:09:44;2.38;;;1.23;;
45618;SDS011;31343;47.520;19.144;2023-07-09T08:12:11;1.98;;;1.23;;
45618;SDS011;31343;47.520;19.144;2023-07-09T08:14:39;1.05;;;0.70;;
45618;SDS011;31343;47.520;19.144;2023-07-09T08:17:05;1.55;;;0.95;;
45618;SDS011;31343;47.520;19.144;2023-07-09T08:19:31;1.65;;;1.17;;
45618;SDS011;31343;47.520;19.144;2023-07-09T08:22:08;1.77;;;0.85;;
45618;SDS011;31343;47.520;19.144;2023-07-09T08:24:34;2.00;;;0.80;;
45618;SDS011;31343;47.520;19.144;2023-07-09T08:26:59;1.50;;;0.98;;
45618;SDS011;31343;47.520;19.144;2023-07-09T08:29:26;1.58;;;0.73;;
45618;SDS011;31343;47.520;19.144;2023-07-09T08:31:52;1.67;;;1.00;;
45618;SDS011;31343;47.520;19.144;2023-07-09T08:34:19;2.33;;;1.17;;
45618;SDS011;31343;47.520;19.144;2023-07-09T08:36:44;1.98;;;0.95;;
45618;SDS011;31343;47.520;19.144;2023-07-09T08:39:11;1.33;;;0.93;;
45618;SDS011;31343;47.520;19.144;2023-07-09T08:44:29;1.00;;;0.70;;
45618;SDS011;31343;47.520;19.144;2023-07-09T08:52:39;1.45;;;0.90;;
45618;SDS011;31343;47.520;19.144;2023-07-09T08:55:18;1.10;;;0.60;;
45618;SDS011;31343;47.520;19.144;2023-07-09T08:57:50;0.93;;;0.82;;
45618;SDS011;31343;47.520;19.144;2023-07-09T09:06:34;1.55;;;1.20;;
45618;SDS011;31343;47.520;19.144;2023-07-09T09:12:16;1.58;;;0.88;;
45618;SDS011;31343;47.520;19.144;2023-07-09T09:14:49;1.55;;;0.93;;
45618;SDS011;31343;47.520;19.144;2023-07-09T09:17:23;1.55;;;0.90;;
45618;SDS011;31343;47.520;19.144;2023-07-09T09:19:55;1.47;;;0.77;;
45618;SDS011;31343;47.520;19.144;2023-07-09T09:22:25;0.93;;;0.82;;
45618;SDS011;31343;47.520;19.144;2023-07-09T09:25:11;1.08;;;0.75;;
45618;SDS011;31343;47.520;19.144;2023-07-09T09:27:40;1.35;;;0.90;;
45618;SDS011;31343;47.520;19.144;2023-07-09T09:30:13;1.67;;;1.10;;
45618;SDS011;31343;47.520;19.144;2023-07-09T09:32:44;0.80;;;0.63;;
45618;SDS011;31343;47.520;19.144;2023-07-09T09:35:13;1.80;;;1.05;;
45618;SDS011;31343;47.520;19.144;2023-07-09T09:37:43;0.80;;;0.60;;
45618;SDS011;31343;47.520;19.144;2023-07-09T09:40:17;1.10;;;0.73;;
45618;SDS011;31343;47.520;19.144;2023-07-09T09:42:47;1.33;;;0.80;;
45618;SDS011;31343;47.520;19.144;2023-07-09T09:45:18;1.30;;;1.05;;
45618;SDS011;31343;47.520;19.144;2023-07-09T09:47:46;1.27;;;0.83;;
45618;SDS011;31343;47.520;19.144;2023-07-09T09:50:13;1.30;;;0.85;;
45618;SDS011;31343;47.520;19.144;2023-07-09T09:52:40;1.25;;;0.90;;
45618;SDS011;31343;47.520;19.144;2023-07-09T09:55:39;2.15;;;0.90;;
45618;SDS011;31343;47.520;19.144;2023-07-09T09:58:00;1.50;;;1.10;;
45618;SDS011;31343;47.520;19.144;2023-07-09T10:00:28;1.40;;;1.23;;
45618;SDS011;31343;47.520;19.144;2023-07-09T10:03:01;1.77;;;1.00;;
45618;SDS011;31343;47.520;19.144;2023-07-09T10:05:43;1.17;;;0.90;;
45618;SDS011;31343;47.520;19.144;2023-07-09T10:10:51;2.10;;;0.75;;
45618;SDS011;31343;47.520;19.144;2023-07-09T10:13:26;2.17;;;1.50;;
45618;SDS011;31343;47.520;19.144;2023-07-09T10:16:00;1.77;;;1.10;;
45618;SDS011;31343;47.520;19.144;2023-07-09T10:18:50;1.25;;;0.90;;
45618;SDS011;31343;47.520;19.144;2023-07-09T10:21:33;1.77;;;1.10;;
45618;SDS011;31343;47.520;19.144;2023-07-09T10:24:17;1.63;;;0.95;;
45618;SDS011;31343;47.520;19.144;2023-07-09T10:26:51;1.85;;;1.10;;
45618;SDS011;31343;47.520;19.144;2023-07-09T10:35:32;1.38;;;0.80;;
45618;SDS011;31343;47.520;19.144;2023-07-09T10:38:35;1.65;;;1.10;;
45618;SDS011;31343;47.520;19.144;2023-07-09T10:49:03;1.42;;;1.13;;
45618;SDS011;31343;47.520;19.144;2023-07-09T10:51:38;1.35;;;0.88;;
45618;SDS011;31343;47.520;19.144;2023-07-09T10:57:16;1.15;;;0.88;;
45618;SDS011;31343;47.520;19.144;2023-07-09T10:59:46;1.20;;;0.77;;
45618;SDS011;31343;47.520;19.144;2023-07-09T11:04:45;2.13;;;1.20;;
45618;SDS011;31343;47.520;19.144;2023-07-09T11:09:51;1.75;;;1.30;;
45618;SDS011;31343;47.520;19.144;2023-07-09T11:12:24;1.60;;;0.80;;
45618;SDS011;31343;47.520;19.144;2023-07-09T11:15:00;1.60;;;1.00;;
45618;SDS011;31343;47.520;19.144;2023-07-09T11:17:27;1.00;;;0.80;;
45618;SDS011;31343;47.520;19.144;2023-07-09T11:19:55;1.27;;;0.80;;
45618;SDS011;31343;47.520;19.144;2023-07-09T11:22:27;1.55;;;0.95;;
45618;SDS011;31343;47.520;19.144;2023-07-09T11:32:52;1.75;;;1.02;;
45618;SDS011;31343;47.520;19.144;2023-07-09T11:35:23;2.67;;;1.00;;
45618;SDS011;31343;47.520;19.144;2023-07-09T11:37:54;1.20;;;0.73;;
45618;SDS011;31343;47.520;19.144;2023-07-09T11:40:21;1.15;;;0.70;;
45618;SDS011;31343;47.520;19.144;2023-07-09T11:45:17;1.45;;;0.90;;
45618;SDS011;31343;47.520;19.144;2023-07-09T11:50:49;1.38;;;0.90;;
45618;SDS011;31343;47.520;19.144;2023-07-09T11:56:07;0.60;;;0.60;;
45618;SDS011;31343;47.520;19.144;2023-07-09T11:58:35;1.40;;;1.00;;
45618;SDS011;31343;47.520;19.144;2023-07-09T12:01:01;1.05;;;0.70;;
45618;SDS011;31343;47.520;19.144;2023-07-09T12:03:35;1.33;;;0.90;;
45618;SDS011;31343;47.520;19.144;2023-07-09T12:08:43;0.68;;;0.55;;
45618;SDS011;31343;47.520;19.144;2023-07-09T12:11:24;1.50;;;0.80;;
45618;SDS011;31343;47.520;19.144;2023-07-09T12:13:54;1.25;;;0.88;;
45618;SDS011;31343;47.520;19.144;2023-07-09T12:16:30;0.98;;;0.65;;
45618;SDS011;31343;47.520;19.144;2023-07-09T12:19:00;0.77;;;0.60;;
45618;SDS011;31343;47.520;19.144;2023-07-09T12:21:26;1.58;;;0.98;;
45618;SDS011;31343;47.520;19.144;2023-07-09T12:23:55;1.27;;;0.90;;
45618;SDS011;31343;47.520;19.144;2023-07-09T12:26:21;1.10;;;0.80;;
45618;SDS011;31343;47.520;19.144;2023-07-09T12:28:50;1.52;;;1.05;;
45618;SDS011;31343;47.520;19.144;2023-07-09T12:31:20;1.30;;;0.90;;
45618;SDS011;31343;47.520;19.144;2023-07-09T12:33:52;1.38;;;0.88;;
45618;SDS011;31343;47.520;19.144;2023-07-09T12:36:20;1.42;;;0.88;;
45618;SDS011;31343;47.520;19.144;2023-07-09T12:38:48;1.63;;;1.00;;
45618;SDS011;31343;47.520;19.144;2023-07-09T12:41:28;0.80;;;0.57;;
45618;SDS011;31343;47.520;19.144;2023-07-09T12:43:59;1.50;;;0.90;;
45618;SDS011;31343;47.520;19.144;2023-07-09T12:46:25;1.00;;;0.60;;
45618;SDS011;31343;47.520;19.144;2023-07-09T12:48:52;1.30;;;0.80;;
45618;SDS011;31343;47.520;19.144;2023-07-09T12:51:21;1.90;;;0.90;;
45618;SDS011;31343;47.520;19.144;2023-07-09T12:54:02;1.27;;;0.85;;
45618;SDS011;31343;47.520;19.144;2023-07-09T12:56:52;1.27;;;0.70;;
45618;SDS011;31343;47.520;19.144;2023-07-09T12:59:20;1.30;;;0.80;;
45618;SDS011;31343;47.520;19.144;2023-07-09T13:02:22;1.13;;;0.73;;
45618;SDS011;31343;47.520;19.144;2023-07-09T13:04:50;1.40;;;0.80;;
45618;SDS011;31343;47.520;19.144;2023-07-09T13:09:52;1.73;;;1.20;;
45618;SDS011;31343;47.520;19.144;2023-07-09T13:12:20;1.88;;;0.80;;
45618;SDS011;31343;47.520;19.144;2023-07-09T13:14:53;1.15;;;0.82;;
45618;SDS011;31343;47.520;19.144;2023-07-09T13:17:19;1.80;;;0.98;;
45618;SDS011;31343;47.520;19.144;2023-07-09T13:19:45;1.38;;;0.90;;
45618;SDS011;31343;47.520;19.144;2023-07-09T13:22:15;0.90;;;0.70;;
45618;SDS011;31343;47.520;19.144;2023-07-09T13:24:42;1.30;;;0.98;;
45618;SDS011;31343;47.520;19.144;2023-07-09T13:27:11;1.77;;;1.25;;
45618;SDS011;31343;47.520;19.144;2023-07-09T13:29:39;2.47;;;1.20;;
45618;SDS011;31343;47.520;19.144;2023-07-09T13:32:08;1.48;;;1.10;;
45618;SDS011;31343;47.520;19.144;2023-07-09T13:34:35;1.98;;;0.95;;
45618;SDS011;31343;47.520;19.144;2023-07-09T13:37:01;1.35;;;0.88;;
45618;SDS011;31343;47.520;19.144;2023-07-09T13:39:26;1.13;;;0.80;;
45618;SDS011;31343;47.520;19.144;2023-07-09T13:41:52;1.92;;;1.10;;
45618;SDS011;31343;47.520;19.144;2023-07-09T13:44:24;1.45;;;1.15;;
45618;SDS011;31343;47.520;19.144;2023-07-09T13:46:55;1.45;;;0.80;;
45618;SDS011;31343;47.520;19.144;2023-07-09T13:49:23;1.48;;;0.95;;
45618;SDS011;31343;47.520;19.144;2023-07-09T13:51:51;1.33;;;0.95;;
45618;SDS011;31343;47.520;19.144;2023-07-09T13:54:19;1.10;;;0.88;;
45618;SDS011;31343;47.520;19.144;2023-07-09T13:56:48;1.27;;;1.13;;
45618;SDS011;31343;47.520;19.144;2023-07-09T13:59:18;1.23;;;0.90;;
45618;SDS011;31343;47.520;19.144;2023-07-09T14:01:47;2.20;;;1.05;;
45618;SDS011;31343;47.520;19.144;2023-07-09T14:04:14;2.08;;;1.15;;
45618;SDS011;31343;47.520;19.144;2023-07-09T14:06:42;1.92;;;1.05;;
45618;SDS011;31343;47.520;19.144;2023-07-09T14:09:08;1.58;;;1.02;;
45618;SDS011;31343;47.520;19.144;2023-07-09T14:11:35;1.98;;;1.08;;
45618;SDS011;31343;47.520;19.144;2023-07-09T14:14:19;1.75;;;1.30;;
45618;SDS011;31343;47.520;19.144;2023-07-09T14:16:48;1.50;;;0.98;;
45618;SDS011;31343;47.520;19.144;2023-07-09T14:19:16;1.83;;;1.30;;
45618;SDS011;31343;47.520;19.144;2023-07-09T14:21:45;1.15;;;0.85;;
45618;SDS011;31343;47.520;19.144;2023-07-09T14:24:22;1.30;;;0.80;;
45618;SDS011;31343;47.520;19.144;2023-07-09T14:26:50;1.10;;;0.90;;
45618;SDS011;31343;47.520;19.144;2023-07-09T14:29:17;1.27;;;1.05;;
45618;SDS011;31343;47.520;19.144;2023-07-09T14:31:44;1.50;;;1.10;;
45618;SDS011;31343;47.520;19.144;2023-07-09T14:34:22;1.25;;;0.82;;
45618;SDS011;31343;47.520;19.144;2023-07-09T14:36:52;3.25;;;1.17;;
45618;SDS011;31343;47.520;19.144;2023-07-09T14:39:19;1.45;;;1.15;;
45618;SDS011;31343;47.520;19.144;2023-07-09T14:41:46;1.73;;;1.15;;
45618;SDS011;31343;47.520;19.144;2023-07-09T14:46:43;2.47;;;1.50;;
45618;SDS011;31343;47.520;19.144;2023-07-09T14:49:09;2.42;;;1.45;;
45618;SDS011;31343;47.520;19.144;2023-07-09T14:51:35;1.73;;;0.90;;
45618;SDS011;31343;47.520;19.144;2023-07-09T14:54:00;2.10;;;1.20;;
45618;SDS011;31343;47.520;19.144;2023-07-09T14:56:26;1.63;;;1.20;;
45618;SDS011;31343;47.520;19.144;2023-07-09T14:58:52;2.13;;;1.30;;
45618;SDS011;31343;47.520;19.144;2023-07-09T15:01:18;1.38;;;0.98;;
45618;SDS011;31343;47.520;19.144;2023-07-09T15:03:45;1.45;;;1.00;;
45618;SDS011;31343;47.520;19.144;2023-07-09T15:06:11;2.60;;;1.52;;
45618;SDS011;31343;47.520;19.144;2023-07-09T15:08:37;1.95;;;1.10;;
45618;SDS011;31343;47.520;19.144;2023-07-09T15:11:03;2.08;;;1.10;;
45618;SDS011;31343;47.520;19.144;2023-07-09T15:13:30;1.98;;;1.20;;
45618;SDS011;31343;47.520;19.144;2023-07-09T15:16:01;1.73;;;1.10;;
45618;SDS011;31343;47.520;19.144;2023-07-09T15:18:28;1.58;;;1.10;;
45618;SDS011;31343;47.520;19.144;2023-07-09T15:20:55;2.42;;;1.30;;
45618;SDS011;31343;47.520;19.144;2023-07-09T15:23:23;1.38;;;1.05;;
45618;SDS011;31343;47.520;19.144;2023-07-09T15:25:50;1.88;;;1.30;;
45618;SDS011;31343;47.520;19.144;2023-07-09T15:28:16;1.83;;;0.90;;
45618;SDS011;31343;47.520;19.144;2023-07-09T15:30:42;1.70;;;1.02;;
45618;SDS011;31343;47.520;19.144;2023-07-09T15:33:12;1.30;;;1.00;;
45618;SDS011;31343;47.520;19.144;2023-07-09T15:35:44;1.65;;;1.20;;
45618;SDS011;31343;47.520;19.144;2023-07-09T15:38:16;2.00;;;1.08;;
45618;SDS011;31343;47.520;19.144;2023-07-09T15:40:50;1.48;;;1.00;;
45618;SDS011;31343;47.520;19.144;2023-07-09T15:43:15;1.73;;;1.08;;
45618;SDS011;31343;47.520;19.144;2023-07-09T15:45:43;1.15;;;1.00;;
45618;SDS011;31343;47.520;19.144;2023-07-09T15:48:25;1.90;;;1.30;;
45618;SDS011;31343;47.520;19.144;2023-07-09T15:50:51;1.75;;;1.20;;
45618;SDS011;31343;47.520;19.144;2023-07-09T15:53:17;1.83;;;1.13;;